• Join FlightAware (Why Join?)
  • Login
  • US Flag 
Rudolph Flight #1: Arrived! 
04:46AM EST


 

Airport Tracker/Info


-or-


 

Live Flight TrackerFlight Track Log ✈ FLG3861 ✈ 19-Sep-2013 ✈ KDTW - KBGM

Flight Track Log - Related Links

Times and Time Zones

All times are in EDT time to prevent confusion due to time zone crossing. See the FLG3861 flight status page for this flight to view local times or setup timezone preferences in your user account.

Time Position Orientation Groundspeed Altitude Reporting Facility
EDT Latitude Longitude Course Direction KTS MPH feet Rate Location/Type
09:46PM 42.1861 -83.3558 170° South 159 183 1,600  Level Cleveland Center
09:46PM 42.1572 -83.3489 170° South 186 214 2,600 1,680 Climbing Cleveland Center
09:47PM 42.1036 -83.3358 170° South 219 252 4,400 1,620 Climbing Cleveland Center
09:48PM 42.0847 -83.3319 171° South 208 239 4,800 1,800 Climbing Cleveland Center
09:49PM 42.0444 -83.2553 125° Southeast 280 322 6,900 2,400 Climbing Cleveland Center
09:50PM 42.0858 -83.1572 60° Northeast 293 337 9,700 1,680 Climbing Cleveland Center
09:51PM 42.1272 -83.0522 62° Northeast 327 376 10,400 1,200 Climbing Cleveland Center
09:52PM 42.1742 -82.9319 62° Northeast 362 417 12,200 1,680 Climbing Cleveland Center
09:53PM 42.1767 -82.7928 89° East 370 426 13,900 1,800 Climbing Cleveland Center
09:54PM 42.1806 -82.6183 88° East 387 445 16,000 1,620 Climbing Cleveland Center
09:55PM 42.1822 -82.4700 89° East 397 457 17,300 1,140 Climbing Cleveland Center
09:56PM 42.1839 -82.3206 89° East 400 460 18,400 1,020 Climbing Cleveland Center
09:57PM 42.1861 -82.1664 89° East 408 470 19,400 960 Climbing Cleveland Center
09:58PM 42.1886 -81.9964 89° East 420 483 20,400 780 Climbing Cleveland Center
09:59PM 42.1903 -81.8339 89° East 426 490 21,100 540 Climbing Cleveland Center
10:00PM 42.1922 -81.6678 89° East 434 499 21,600 480 Climbing Cleveland Center
10:01PM 42.1933 -81.4972 89° East 447 514 22,100 480 Climbing Cleveland Center
10:02PM 42.1958 -81.3272 89° East 448 516 22,600 480 Climbing Cleveland Center
10:03PM 42.1953 -81.1550 90° East 453 521 23,100 480 Climbing Cleveland Center
10:04PM 42.1967 -80.9833 89° East 453 521 23,600 480 Climbing Cleveland Center
10:05PM 42.1967 -80.8136 90° East 450 518 24,100 480 Climbing Cleveland Center
10:06PM 42.1972 -80.6433 90° East 448 516 24,600 480 Climbing Cleveland Center
10:07PM 42.1978 -80.4711 90° East 453 521 25,100 480 Climbing Cleveland Center
10:08PM 42.1981 -80.3008 90° East 452 520 25,700 540 Climbing Cleveland Center
10:09PM 42.2022 -80.1300 88° East 452 520 26,200 480 Climbing Cleveland Center
10:10PM 42.2056 -79.9528 88° East 449 517 26,700 360 Climbing Cleveland Center
10:11PM 42.2078 -79.7850 89° East 448 516 27,000 120 Climbing Cleveland Center
10:12PM 42.2106 -79.6144 89° East 456 525 27,000  Level Cleveland Center
10:13PM 42.2128 -79.4392 89° East 467 537 27,000  Level Cleveland Center
10:14PM 42.2156 -79.2292 89° East 469 540 27,000  Level Cleveland Center
10:15PM 42.2175 -79.0522 89° East 473 544 27,000  Level Cleveland Center
10:16PM 42.2192 -78.8681 89° East 477 549 27,000 -420 Level Cleveland Center
10:17PM 42.2214 -78.6894 89° East 477 549 26,200 -540 Descending Cleveland Center
10:18PM 42.2222 -78.5083 90° East 484 557 26,000 -120 Descending Cleveland Center
10:19PM 42.2236 -78.3269 89° East 486 559 26,000 -780 Level Cleveland Center
10:20PM 42.2233 -78.1489 90° East 481 554 24,500 -1,740 Descending Cleveland Center
10:21PM 42.2236 -77.9744 90° East 472 543 22,500 -2,160 Descending Cleveland Center
10:22PM 42.2244 -77.7733 90° East 458 527 20,100 -2,160 Descending Cleveland Center
10:23PM 42.2242 -77.6092 90° East 448 516 18,100 -1,920 Descending Cleveland Center
10:24PM 42.2244 -77.4486 90° East 439 505 16,200 -1,920 Descending Cleveland Center
10:25PM 42.2233 -77.2942 91° East 425 489 14,200 -1,980 Descending Cleveland Center
10:26PM 42.2225 -77.1458 90° East 408 470 12,200 -1,800 Descending Cleveland Center
10:28PM 42.2217 -77.0086 90° East 382 440 10,600 -1,380 Descending Cleveland Center
10:28PM 42.2194 -76.8919 91° East 343 395 9,500 -900 Descending New York Center
10:29PM 42.2192 -76.7797 90° East 311 358 8,900 -300 Descending New York Center
10:30PM 42.2167 -76.6619 92° East 289 333 8,900  Level New York Center
10:31PM 42.2136 -76.5553 92° East 289 333 8,900  Level New York Center
10:32PM 42.2144 -76.4517 89° East 284 327 8,900 -600 Level New York Center
10:33PM 42.2131 -76.3453 91° East 284 327 7,700 -1,500 Descending New York Center
10:34PM 42.2097 -76.2386 92° East 284 327 6,000 -1,800 Descending New York Center
10:35PM 42.2369 -76.1428 69° East 269 310 4,100 -1,500 Descending New York Center
10:36PM 42.2697 -76.0642 61° Northeast 252 290 3,100 -840 Descending New York Center
10:37PM 42.2489 -76.0150 120° Southeast 155 178 2,500 -480 Descending New York Center
10:38PM 42.2406 -75.9667 103° East 155 178 2,200 -300 Descending New York Center